Time;durP1;ratioP1;P1;durP2;ratioP2;P2;SDS_P1;SDS_P2;PMS_P1;PMS_P2;Temp;Humidity;BMP_temperature;BMP_pressure;BME280_temperature;BME280_humidity;BME280_pressure;Samples;Min_cycle;Max_cycle;Signal;HPM_P1;HPM_P2
2022/06/24 00:02:10;;;;;;;4.70;3.58;;;24.60;52.50;;;;;;4970308;28;91799;-71
2022/06/24 00:04:38;;;;;;;4.82;4.43;;;24.50;52.60;;;;;;4938474;28;93322;-70
2022/06/24 00:07:16;;;;;;;3.95;3.58;;;24.50;53.00;;;;;;4935732;28;95514;-71
2022/06/24 00:09:44;;;;;;;4.13;2.97;;;24.50;53.10;;;;;;4937924;28;95340;-71
2022/06/24 00:12:14;;;;;;;4.57;4.22;;;24.40;53.30;;;;;;4938279;28;92390;-71
2022/06/24 00:14:45;;;;;;;4.72;4.10;;;24.40;53.60;;;;;;4937461;28;93182;-70
2022/06/24 00:17:14;;;;;;;4.35;3.95;;;24.40;54.10;;;;;;4938366;28;93030;-71
2022/06/24 00:19:55;;;;;;;3.83;2.92;;;24.30;54.50;;;;;;4937058;28;92619;-71
2022/06/24 00:22:23;;;;;;;4.13;3.35;;;24.30;55.40;;;;;;4938421;28;92469;-71
2022/06/24 00:25:06;;;;;;;4.30;4.03;;;24.20;55.60;;;;;;4936690;28;96011;-70
2022/06/24 00:27:33;;;;;;;4.80;4.50;;;24.20;55.80;;;;;;4937557;28;93026;-71
2022/06/24 00:30:08;;;;;;;4.93;4.53;;;24.00;56.00;;;;;;4938428;28;93114;-70
2022/06/24 00:32:35;;;;;;;3.80;2.95;;;24.00;55.80;;;;;;4953606;28;92445;-71
2022/06/24 00:35:10;;;;;;;3.35;3.05;;;23.90;56.00;;;;;;4935301;28;96685;-71
2022/06/24 00:37:39;;;;;;;4.57;3.67;;;23.90;56.30;;;;;;4938318;28;95427;-71
2022/06/24 00:40:09;;;;;;;4.03;3.45;;;23.80;56.10;;;;;;4938010;28;92557;-71
2022/06/24 00:42:41;;;;;;;4.72;3.50;;;23.80;56.80;;;;;;4938156;28;92455;-70
2022/06/24 00:45:22;;;;;;;5.18;4.80;;;23.80;56.80;;;;;;4936351;28;95956;-71
2022/06/24 00:47:50;;;;;;;3.38;3.17;;;23.80;56.60;;;;;;4936846;28;92949;-71
2022/06/24 00:50:23;;;;;;;4.97;4.47;;;23.70;57.20;;;;;;4937963;28;92331;-71
2022/06/24 00:52:56;;;;;;;3.03;2.60;;;23.80;58.00;;;;;;4938434;28;91657;-70
2022/06/24 00:55:27;;;;;;;7.53;3.80;;;23.70;57.90;;;;;;4936060;28;95797;-70
2022/06/24 00:57:56;;;;;;;4.57;4.10;;;23.60;58.40;;;;;;4968865;28;95987;-71
2022/06/24 01:00:28;;;;;;;4.75;3.25;;;23.60;59.50;;;;;;4935941;28;99378;-70
2022/06/24 01:02:59;;;;;;;4.30;4.00;;;23.50;60.30;;;;;;4969187;28;92494;-71
2022/06/24 01:05:27;;;;;;;4.30;4.00;;;23.40;60.50;;;;;;4936934;28;93419;-71
2022/06/24 01:07:55;;;;;;;5.38;3.40;;;23.40;60.90;;;;;;4937657;28;92995;-71
2022/06/24 01:10:22;;;;;;;5.78;3.17;;;23.30;61.20;;;;;;4936574;28;92939;-70
2022/06/24 01:12:49;;;;;;;4.72;4.43;;;23.30;61.90;;;;;;4936375;28;92467;-70
2022/06/24 01:15:16;;;;;;;3.72;3.53;;;23.20;61.90;;;;;;4937342;28;93265;-71
2022/06/24 01:17:43;;;;;;;4.22;3.92;;;23.20;62.60;;;;;;4937548;28;92992;-71
2022/06/24 01:20:12;;;;;;;5.22;4.82;;;23.10;62.60;;;;;;4935144;28;93044;-70
2022/06/24 01:22:40;;;;;;;4.80;4.07;;;23.10;62.90;;;;;;4937528;28;92389;-70
2022/06/24 01:25:08;;;;;;;3.83;3.47;;;23.00;62.60;;;;;;4934862;28;97150;-71
2022/06/24 01:27:35;;;;;;;5.15;4.65;;;22.90;63.00;;;;;;4935635;28;97921;-71
2022/06/24 01:30:03;;;;;;;4.72;4.30;;;22.80;63.20;;;;;;4968467;28;92497;-70
2022/06/24 01:32:30;;;;;;;5.20;4.40;;;22.80;63.80;;;;;;4935601;28;92668;-71
2022/06/24 01:34:57;;;;;;;4.72;4.35;;;22.70;64.40;;;;;;4937094;28;93219;-71
2022/06/24 01:37:24;;;;;;;4.40;4.00;;;22.60;65.40;;;;;;4935695;28;92559;-71
2022/06/24 01:39:51;;;;;;;3.65;3.40;;;22.50;65.80;;;;;;4920205;28;92936;-71
2022/06/24 01:42:18;;;;;;;5.10;4.60;;;22.50;66.00;;;;;;4936247;28;91758;-70
2022/06/24 01:44:45;;;;;;;4.68;4.40;;;22.40;66.00;;;;;;4936664;28;100495;-70
2022/06/24 01:47:12;;;;;;;5.00;4.47;;;22.30;66.20;;;;;;4968027;28;95492;-70
2022/06/24 01:49:39;;;;;;;4.72;3.92;;;22.30;66.60;;;;;;4935686;28;94963;-70
2022/06/24 01:52:06;;;;;;;5.53;5.03;;;22.20;66.90;;;;;;4936000;28;92511;-71
2022/06/24 01:54:33;;;;;;;5.53;4.95;;;22.20;66.90;;;;;;4935276;28;93356;-70
2022/06/24 01:57:00;;;;;;;4.75;4.32;;;22.20;67.20;;;;;;4968137;28;95603;-70
2022/06/24 01:59:27;;;;;;;4.00;3.70;;;22.10;67.50;;;;;;4936555;28;93281;-70
2022/06/24 02:01:54;;;;;;;5.72;4.97;;;22.00;67.70;;;;;;4935873;28;92568;-70
2022/06/24 02:04:21;;;;;;;5.25;4.82;;;22.00;68.40;;;;;;4936608;28;92434;-70
2022/06/24 02:06:48;;;;;;;4.60;4.35;;;22.00;68.40;;;;;;4933027;28;93054;-70
2022/06/24 02:09:17;;;;;;;4.15;3.78;;;22.00;68.40;;;;;;4968133;28;92415;-71
2022/06/24 02:14:31;;;;;;;4.60;4.20;;;22.00;69.10;;;;;;4934185;28;95631;-71
2022/06/24 02:16:58;;;;;;;5.57;5.15;;;22.00;69.10;;;;;;4935330;28;96640;-71
2022/06/24 02:19:25;;;;;;;5.50;4.95;;;22.00;69.00;;;;;;4936619;28;92446;-70
2022/06/24 02:21:52;;;;;;;5.05;4.50;;;22.00;68.90;;;;;;4936803;28;92436;-70
2022/06/24 02:24:19;;;;;;;4.15;3.85;;;22.00;69.60;;;;;;4936131;28;93361;-70
2022/06/24 02:26:46;;;;;;;5.68;5.28;;;22.00;69.60;;;;;;4936153;28;107558;-70
2022/06/24 02:29:13;;;;;;;4.47;4.07;;;21.90;69.70;;;;;;4967925;28;92536;-71
2022/06/24 02:31:41;;;;;;;4.35;4.05;;;21.90;68.90;;;;;;4938657;28;91781;-70
2022/06/24 02:34:08;;;;;;;4.45;4.15;;;21.90;69.00;;;;;;4922509;28;95921;-70
2022/06/24 02:36:34;;;;;;;5.65;5.25;;;21.90;68.90;;;;;;4938461;28;93054;-70
2022/06/24 02:39:02;;;;;;;5.93;5.43;;;21.90;69.00;;;;;;4938886;28;94879;-70
2022/06/24 02:41:29;;;;;;;5.15;4.57;;;21.90;69.10;;;;;;4938399;28;92492;-70
2022/06/24 02:43:56;;;;;;;6.20;5.75;;;21.80;68.90;;;;;;4938649;28;93176;-70
2022/06/24 02:46:23;;;;;;;6.15;5.68;;;21.80;69.10;;;;;;4938032;28;95507;-70
2022/06/24 02:48:50;;;;;;;5.25;4.85;;;21.80;69.50;;;;;;4940016;28;92460;-70
2022/06/24 02:51:17;;;;;;;5.90;4.75;;;21.70;69.70;;;;;;4939902;28;92454;-70
2022/06/24 02:53:44;;;;;;;4.82;4.43;;;21.70;69.70;;;;;;4954344;28;95945;-70
2022/06/24 02:56:13;;;;;;;5.97;5.47;;;21.70;70.30;;;;;;4971311;28;95609;-70
2022/06/24 02:58:41;;;;;;;5.38;4.55;;;21.70;70.30;;;;;;4937834;28;99607;-70
2022/06/24 03:01:10;;;;;;;6.10;5.60;;;21.70;70.20;;;;;;4939796;28;92445;-70
2022/06/24 03:03:37;;;;;;;5.47;4.15;;;21.70;70.30;;;;;;4969215;28;98708;-70
2022/06/24 03:06:05;;;;;;;6.20;5.75;;;21.60;70.50;;;;;;4938691;28;95319;-70
2022/06/24 03:08:32;;;;;;;4.93;4.40;;;21.70;70.80;;;;;;4939258;28;92414;-70
2022/06/24 03:10:59;;;;;;;5.93;4.22;;;21.60;71.00;;;;;;4970833;28;92531;-70
2022/06/24 03:13:28;;;;;;;6.43;5.93;;;21.70;70.70;;;;;;4938199;28;93192;-70
2022/06/24 03:15:55;;;;;;;4.97;4.47;;;21.70;70.10;;;;;;4937508;28;98200;-70
2022/06/24 03:18:23;;;;;;;5.18;4.60;;;21.70;70.20;;;;;;4938517;28;93881;-70
2022/06/24 03:20:51;;;;;;;5.65;4.32;;;21.80;69.90;;;;;;4922396;28;91723;-70
2022/06/24 03:23:18;;;;;;;4.65;4.22;;;21.90;69.80;;;;;;4939501;28;93119;-70
2022/06/24 03:25:45;;;;;;;5.78;5.28;;;22.00;69.90;;;;;;4937631;28;92923;-70
2022/06/24 03:28:12;;;;;;;7.03;5.00;;;22.00;69.00;;;;;;4938145;28;94795;-70
2022/06/24 03:30:40;;;;;;;4.88;4.57;;;22.10;68.70;;;;;;4937681;28;92429;-71
2022/06/24 03:33:07;;;;;;;6.80;5.65;;;22.10;68.50;;;;;;4938797;28;92526;-70
2022/06/24 03:35:34;;;;;;;6.20;5.68;;;22.10;68.60;;;;;;4937126;28;103054;-70
2022/06/24 03:38:01;;;;;;;4.95;4.60;;;22.20;68.30;;;;;;4939079;28;92503;-71
2022/06/24 03:40:28;;;;;;;5.85;4.57;;;22.30;68.50;;;;;;4970270;28;92493;-70
2022/06/24 03:42:55;;;;;;;6.75;6.15;;;22.30;67.80;;;;;;4936515;28;93280;-71
2022/06/24 03:45:22;;;;;;;6.93;5.38;;;22.30;67.70;;;;;;4939077;28;93010;-70
2022/06/24 03:47:49;;;;;;;5.07;4.63;;;22.40;67.80;;;;;;4937428;28;92541;-70
2022/06/24 03:50:16;;;;;;;4.40;4.00;;;22.40;67.50;;;;;;4937624;28;92479;-70
2022/06/24 03:52:44;;;;;;;6.10;5.70;;;22.50;67.60;;;;;;4936066;28;95718;-70
2022/06/24 03:55:11;;;;;;;5.97;5.45;;;22.50;67.40;;;;;;4920931;28;98040;-71
2022/06/24 03:57:38;;;;;;;5.13;4.72;;;22.50;67.40;;;;;;4937226;28;92459;-71
2022/06/24 04:00:07;;;;;;;5.85;5.32;;;22.60;67.40;;;;;;4938792;28;92584;-71
2022/06/24 04:02:37;;;;;;;9.65;5.60;;;22.60;67.60;;;;;;4934604;28;93494;-71
2022/06/24 04:05:11;;;;;;;4.85;4.15;;;22.80;67.30;;;;;;4937117;28;95849;-71
2022/06/24 04:07:38;;;;;;;6.55;6.05;;;23.00;66.70;;;;;;4937130;28;92530;-71
2022/06/24 04:10:06;;;;;;;7.10;5.57;;;23.10;66.50;;;;;;4921629;28;91851;-70
2022/06/24 04:12:33;;;;;;;5.82;4.50;;;23.20;66.20;;;;;;4938572;28;93806;-70
2022/06/24 04:15:19;;;;;;;5.72;5.00;;;23.20;65.90;;;;;;4938083;28;92972;-71
2022/06/24 04:17:47;;;;;;;6.90;6.03;;;23.30;65.80;;;;;;4936098;28;94814;-71
2022/06/24 04:20:16;;;;;;;5.20;4.38;;;23.30;65.70;;;;;;4937166;28;93206;-71
2022/06/24 04:22:43;;;;;;;5.00;4.60;;;23.40;65.70;;;;;;4938069;28;93254;-71
2022/06/24 04:25:11;;;;;;;5.40;4.88;;;23.50;65.50;;;;;;4936687;28;95468;-71
2022/06/24 04:27:38;;;;;;;6.40;5.70;;;23.50;65.10;;;;;;4937028;28;92906;-71
2022/06/24 04:30:07;;;;;;;5.22;4.82;;;23.60;65.20;;;;;;4936810;28;92566;-71
2022/06/24 04:32:34;;;;;;;6.82;4.45;;;23.60;65.40;;;;;;4938163;28;93382;-71
2022/06/24 04:35:03;;;;;;;5.38;4.97;;;23.60;64.90;;;;;;4936856;28;95459;-70
2022/06/24 04:37:30;;;;;;;4.63;4.22;;;23.60;64.80;;;;;;4938293;28;92487;-70
2022/06/24 04:39:58;;;;;;;4.40;4.00;;;23.60;64.50;;;;;;4936427;28;92481;-70
2022/06/24 04:42:25;;;;;;;5.20;4.90;;;23.50;64.50;;;;;;4936640;28;95562;-71
2022/06/24 04:44:52;;;;;;;6.30;4.30;;;23.50;64.50;;;;;;4937679;28;95516;-71
2022/06/24 04:47:19;;;;;;;4.70;3.83;;;23.50;64.50;;;;;;4938148;28;93001;-71
2022/06/24 04:49:46;;;;;;;5.40;5.00;;;23.50;64.40;;;;;;4937855;28;92455;-70
2022/06/24 04:52:13;;;;;;;4.95;4.43;;;23.50;64.60;;;;;;4937667;28;93156;-71
2022/06/24 04:54:40;;;;;;;4.90;4.60;;;23.60;64.50;;;;;;4935650;28;98750;-71
2022/06/24 04:57:07;;;;;;;4.00;3.70;;;23.60;64.50;;;;;;4938068;28;92946;-70
2022/06/24 04:59:34;;;;;;;5.65;3.88;;;23.70;64.50;;;;;;4938199;28;91707;-71
2022/06/24 05:02:02;;;;;;;5.15;4.60;;;23.70;64.50;;;;;;4937558;28;93192;-70
2022/06/24 05:04:34;;;;;;;5.05;4.60;;;23.70;64.40;;;;;;4953056;28;95439;-71
2022/06/24 05:07:02;;;;;;;9.30;5.13;;;23.80;65.00;;;;;;4934840;28;94936;-71
2022/06/24 05:09:29;;;;;;;8.02;4.63;;;23.80;65.80;;;;;;4936190;28;92687;-71
2022/06/24 05:11:56;;;;;;;5.32;4.30;;;23.80;66.40;;;;;;4936001;28;92364;-71
2022/06/24 05:14:23;;;;;;;7.47;6.03;;;23.80;66.80;;;;;;4937543;28;92963;-71
2022/06/24 05:16:50;;;;;;;6.97;4.60;;;23.80;66.90;;;;;;4935917;28;92553;-71
2022/06/24 05:19:17;;;;;;;6.15;5.68;;;23.90;67.00;;;;;;4937432;28;92532;-71
2022/06/24 05:21:44;;;;;;;6.03;4.78;;;23.90;66.80;;;;;;4937134;28;93256;-70
2022/06/24 05:24:10;;;;;;;5.75;5.05;;;23.80;67.00;;;;;;4937859;28;92935;-71
2022/06/24 05:26:39;;;;;;;6.18;5.72;;;23.90;67.30;;;;;;4920031;28;92442;-71
2022/06/24 05:29:06;;;;;;;5.43;4.90;;;23.90;67.50;;;;;;4935952;28;92449;-70
2022/06/24 05:31:33;;;;;;;6.57;5.30;;;24.00;67.70;;;;;;4934897;28;95669;-71
2022/06/24 05:34:00;;;;;;;6.30;5.80;;;24.10;67.50;;;;;;4936618;28;95233;-70
2022/06/24 05:36:27;;;;;;;6.80;5.40;;;24.30;67.40;;;;;;4937171;28;92421;-71
2022/06/24 05:38:54;;;;;;;5.47;5.00;;;24.50;66.90;;;;;;4968325;28;92483;-71
2022/06/24 05:41:22;;;;;;;7.30;6.70;;;24.70;66.20;;;;;;4968306;28;95645;-71
2022/06/24 05:43:49;;;;;;;7.93;6.13;;;24.70;66.60;;;;;;4935136;28;106103;-71
2022/06/24 05:46:16;;;;;;;7.18;5.47;;;24.80;67.50;;;;;;4936030;28;92400;-71
2022/06/24 05:48:43;;;;;;;6.05;5.55;;;24.70;67.80;;;;;;4936220;28;91705;-71
2022/06/24 05:51:12;;;;;;;8.23;7.57;;;24.70;68.80;;;;;;4936732;28;93285;-71
2022/06/24 05:56:25;;;;;;;7.25;6.55;;;24.30;72.20;;;;;;4935853;28;94819;-70
2022/06/24 05:58:52;;;;;;;9.00;8.30;;;24.10;73.40;;;;;;4936846;28;92450;-70
2022/06/24 06:01:19;;;;;;;9.65;8.73;;;24.00;74.80;;;;;;4935402;28;94179;-71
2022/06/24 06:03:49;;;;;;;8.73;7.70;;;23.90;76.40;;;;;;4935567;28;92939;-70
2022/06/24 06:06:16;;;;;;;12.20;9.55;;;23.70;77.80;;;;;;4936133;28;92641;-70
2022/06/24 06:08:44;;;;;;;9.85;8.82;;;23.60;80.10;;;;;;4935318;28;92473;-70
2022/06/24 06:11:15;;;;;;;10.05;8.57;;;23.60;81.40;;;;;;4935249;28;93190;-70
2022/06/24 06:13:43;;;;;;;10.48;9.45;;;23.50;83.20;;;;;;4935776;28;92719;-71
2022/06/24 06:16:11;;;;;;;11.38;10.30;;;23.40;84.50;;;;;;4936540;28;92496;-70
2022/06/24 06:18:38;;;;;;;11.90;10.73;;;23.40;85.60;;;;;;4918762;28;92556;-71
2022/06/24 06:21:07;;;;;;;11.18;10.07;;;23.40;86.70;;;;;;4934495;28;95517;-71
2022/06/24 06:23:36;;;;;;;11.32;9.75;;;23.30;88.00;;;;;;4934470;28;95151;-70
2022/06/24 06:26:05;;;;;;;11.00;9.93;;;23.20;89.20;;;;;;4934798;28;92504;-71
2022/06/24 06:28:32;;;;;;;11.85;10.73;;;23.30;90.00;;;;;;4936522;28;92417;-70
2022/06/24 06:30:59;;;;;;;11.63;10.43;;;23.40;90.10;;;;;;4935471;28;98324;-70
2022/06/24 06:33:26;;;;;;;9.95;8.98;;;23.60;89.40;;;;;;4935733;28;92445;-70
2022/06/24 06:36:02;;;;;;;12.43;11.27;;;23.70;89.40;;;;;;4935005;28;92552;-70
2022/06/24 06:38:29;;;;;;;13.55;12.25;;;23.90;90.10;;;;;;4919069;28;92246;-70
2022/06/24 06:40:56;;;;;;;12.85;11.50;;;23.90;90.40;;;;;;4934199;28;93365;-70
2022/06/24 06:43:23;;;;;;;21.20;11.63;;;24.00;90.50;;;;;;4935708;28;92793;-70
2022/06/24 06:45:51;;;;;;;11.80;10.70;;;24.00;90.60;;;;;;4917106;28;94844;-70
2022/06/24 06:48:19;;;;;;;14.85;13.45;;;24.00;90.80;;;;;;4918320;28;92479;-70
2022/06/24 06:50:46;;;;;;;15.13;13.82;;;24.00;91.30;;;;;;4935560;28;93359;-71
2022/06/24 06:53:13;;;;;;;15.27;12.75;;;24.00;91.70;;;;;;4935117;28;93642;-71
2022/06/24 06:55:40;;;;;;;15.20;13.80;;;23.90;92.20;;;;;;4918123;28;92489;-71
2022/06/24 06:58:11;;;;;;;16.40;14.85;;;23.90;92.50;;;;;;4934137;28;92429;-70
2022/06/24 07:00:38;;;;;;;16.40;14.70;;;24.00;92.80;;;;;;4935437;28;93157;-70
2022/06/24 07:03:05;;;;;;;15.35;13.82;;;23.90;93.10;;;;;;4935623;28;92812;-70
2022/06/24 07:05:32;;;;;;;14.98;13.48;;;24.00;93.40;;;;;;4934153;28;92951;-70
2022/06/24 07:07:59;;;;;;;19.25;16.48;;;24.10;93.60;;;;;;4917998;28;92475;-70
2022/06/24 07:10:26;;;;;;;14.85;13.38;;;24.20;93.80;;;;;;4932802;28;95560;-70
2022/06/24 07:12:53;;;;;;;16.17;14.57;;;24.20;94.00;;;;;;4933880;28;97924;-70
2022/06/24 07:15:20;;;;;;;15.95;14.10;;;24.20;94.10;;;;;;4934075;28;92535;-70
2022/06/24 07:17:47;;;;;;;15.02;13.20;;;24.40;94.30;;;;;;4938550;28;92515;-70
2022/06/24 07:20:14;;;;;;;15.55;14.15;;;24.50;94.40;;;;;;4921150;28;93256;-70
2022/06/24 07:22:41;;;;;;;15.48;12.80;;;24.60;94.30;;;;;;4938468;28;92986;-70
2022/06/24 07:25:08;;;;;;;14.25;12.82;;;24.70;94.20;;;;;;4938737;28;92677;-70
2022/06/24 07:27:35;;;;;;;15.13;13.82;;;24.70;94.30;;;;;;4939013;28;91716;-70
2022/06/24 07:30:04;;;;;;;14.18;12.70;;;24.70;94.20;;;;;;4937132;28;92637;-70
2022/06/24 07:32:31;;;;;;;15.00;13.57;;;24.70;94.30;;;;;;4937209;28;93243;-70
2022/06/24 07:34:58;;;;;;;14.52;13.13;;;24.60;94.50;;;;;;4935672;28;94902;-71
2022/06/24 07:37:25;;;;;;;13.43;12.18;;;24.70;94.70;;;;;;4938555;28;92413;-70
2022/06/24 07:39:52;;;;;;;13.82;12.43;;;24.70;94.90;;;;;;4938450;28;93191;-70
2022/06/24 07:42:19;;;;;;;13.30;12.00;;;24.70;95.00;;;;;;4920568;28;95696;-70
2022/06/24 07:44:47;;;;;;;14.48;12.68;;;24.70;95.10;;;;;;4938254;28;93626;-70
2022/06/24 07:47:14;;;;;;;12.02;11.00;;;24.70;95.10;;;;;;4936571;28;92653;-70
2022/06/24 07:49:41;;;;;;;13.45;12.25;;;24.60;95.20;;;;;;4937035;28;93616;-70
2022/06/24 07:52:09;;;;;;;11.77;10.68;;;24.50;95.30;;;;;;4936722;28;95571;-70
2022/06/24 07:54:39;;;;;;;13.48;9.88;;;24.50;95.40;;;;;;4938190;28;92358;-70
2022/06/24 07:57:06;;;;;;;10.73;9.65;;;24.50;95.40;;;;;;4938137;28;92437;-70
2022/06/24 07:59:36;;;;;;;10.95;9.25;;;24.60;95.40;;;;;;4936288;28;95581;-71
2022/06/24 08:02:07;;;;;;;9.38;8.57;;;24.70;95.40;;;;;;4938429;28;95430;-70
2022/06/24 08:04:34;;;;;;;9.88;8.95;;;24.80;95.30;;;;;;4938808;28;92485;-70
2022/06/24 08:07:04;;;;;;;12.15;10.75;;;24.80;95.20;;;;;;4938270;28;92469;-71
2022/06/24 08:09:32;;;;;;;9.38;8.45;;;24.90;95.10;;;;;;4936529;28;94482;-70
2022/06/24 08:12:00;;;;;;;11.48;10.35;;;24.90;95.00;;;;;;4938568;28;92965;-71
2022/06/24 08:14:27;;;;;;;10.40;9.32;;;24.90;95.10;;;;;;4936406;28;92541;-70
2022/06/24 08:16:55;;;;;;;11.20;10.05;;;24.90;95.20;;;;;;4937542;28;92326;-70
2022/06/24 08:19:22;;;;;;;11.35;10.30;;;24.90;95.20;;;;;;4936199;28;93173;-71
2022/06/24 08:21:49;;;;;;;9.68;8.77;;;24.90;95.10;;;;;;4936546;28;95721;-70
2022/06/24 08:24:17;;;;;;;10.27;9.38;;;25.00;95.30;;;;;;4937173;28;95319;-70
2022/06/24 08:26:44;;;;;;;12.52;10.10;;;25.00;95.30;;;;;;4937189;28;92479;-70
2022/06/24 08:29:11;;;;;;;9.80;8.82;;;25.10;95.50;;;;;;4919299;28;95650;-71
2022/06/24 08:31:38;;;;;;;8.50;7.80;;;25.30;95.20;;;;;;4953050;28;95551;-70
2022/06/24 08:34:05;;;;;;;10.82;9.80;;;25.50;94.90;;;;;;4936848;28;92530;-71
2022/06/24 08:36:32;;;;;;;10.25;9.35;;;25.70;94.30;;;;;;4938212;28;92461;-71
2022/06/24 08:38:59;;;;;;;10.07;9.13;;;25.80;94.10;;;;;;4920548;28;95595;-71
2022/06/24 08:41:27;;;;;;;9.75;8.75;;;25.90;94.10;;;;;;4937899;28;93075;-71
2022/06/24 08:43:56;;;;;;;10.52;9.65;;;26.00;93.90;;;;;;4920537;28;92518;-71
2022/06/24 08:46:25;;;;;;;10.55;9.63;;;26.00;93.70;;;;;;4936617;28;93050;-71
2022/06/24 08:48:58;;;;;;;10.10;8.77;;;25.90;93.60;;;;;;4936301;28;101039;-70
2022/06/24 08:51:26;;;;;;;8.75;7.95;;;25.80;93.60;;;;;;4937719;28;95461;-71
2022/06/24 08:53:57;;;;;;;8.43;7.53;;;25.70;93.60;;;;;;4937713;28;92434;-71
2022/06/24 08:56:45;;;;;;;8.38;7.65;;;25.70;93.70;;;;;;4936971;28;92535;-70
2022/06/24 08:59:11;;;;;;;8.05;7.25;;;25.50;93.90;;;;;;4936515;28;93175;-70
2022/06/24 09:01:40;;;;;;;10.27;9.38;;;25.50;94.00;;;;;;4937710;28;93063;-71
2022/06/24 09:04:09;;;;;;;8.85;7.95;;;25.40;94.20;;;;;;4936254;28;92473;-71
2022/06/24 09:06:40;;;;;;;8.55;7.82;;;25.50;94.20;;;;;;4937701;28;91827;-71
2022/06/24 09:09:08;;;;;;;9.23;8.45;;;25.50;94.30;;;;;;4937427;28;93241;-70
2022/06/24 09:11:41;;;;;;;7.57;6.60;;;25.50;94.30;;;;;;4937317;28;93247;-70
2022/06/24 09:14:09;;;;;;;8.77;7.97;;;25.60;94.30;;;;;;4936490;28;94901;-70
2022/06/24 09:16:38;;;;;;;8.18;7.57;;;25.50;94.30;;;;;;4937345;28;92474;-70
2022/06/24 09:19:14;;;;;;;8.75;7.93;;;25.50;94.30;;;;;;4936086;28;95856;-70
2022/06/24 09:21:42;;;;;;;8.00;7.40;;;25.40;94.40;;;;;;4937469;28;92983;-70
2022/06/24 09:24:11;;;;;;;7.55;6.95;;;25.50;94.50;;;;;;4936248;28;92716;-71
2022/06/24 09:26:41;;;;;;;7.88;7.18;;;25.60;94.40;;;;;;4920166;28;92521;-72
2022/06/24 09:29:16;;;;;;;7.90;7.30;;;25.80;94.40;;;;;;4968470;28;95632;-71
2022/06/24 09:31:43;;;;;;;7.93;7.22;;;26.00;94.10;;;;;;4937465;28;92892;-71
2022/06/24 09:34:13;;;;;;;7.75;7.22;;;26.10;93.90;;;;;;4936140;28;92510;-71
2022/06/24 09:36:42;;;;;;;7.95;7.35;;;26.20;93.60;;;;;;4935516;28;99379;-72
2022/06/24 09:39:13;;;;;;;7.88;6.70;;;26.20;93.30;;;;;;4935262;28;95560;-72
2022/06/24 09:41:55;;;;;;;7.93;7.32;;;26.10;93.10;;;;;;4936937;28;95537;-72
2022/06/24 09:44:26;;;;;;;7.68;7.18;;;26.00;93.20;;;;;;4936112;28;92482;-72
2022/06/24 09:47:05;;;;;;;7.32;6.70;;;25.80;93.20;;;;;;4935846;28;92585;-72
2022/06/24 09:49:32;;;;;;;7.00;6.40;;;25.70;93.40;;;;;;4935580;28;93458;-72
2022/06/24 09:51:59;;;;;;;8.40;7.85;;;25.40;93.80;;;;;;4935661;28;93030;-72
2022/06/24 09:54:27;;;;;;;8.18;7.47;;;25.30;94.10;;;;;;4937061;28;93112;-72
2022/06/24 09:56:56;;;;;;;7.10;6.50;;;25.30;94.30;;;;;;4937164;28;91739;-72
2022/06/24 10:02:16;;;;;;;7.63;7.00;;;25.30;94.40;;;;;;4936880;28;92664;-72
2022/06/24 10:04:50;;;;;;;7.85;7.20;;;25.40;94.20;;;;;;4934318;28;94865;-72
2022/06/24 10:07:18;;;;;;;7.63;6.90;;;25.60;94.00;;;;;;4935583;28;92531;-72
2022/06/24 10:09:47;;;;;;;9.15;8.45;;;25.60;93.70;;;;;;4936744;28;93123;-72
2022/06/24 10:12:17;;;;;;;8.30;7.70;;;25.60;93.50;;;;;;4936646;28;92887;-72
2022/06/24 10:14:46;;;;;;;6.88;6.25;;;25.50;93.60;;;;;;4936603;28;92441;-72
2022/06/24 10:17:14;;;;;;;7.57;7.07;;;25.40;93.70;;;;;;4934963;28;98297;-72
2022/06/24 10:19:43;;;;;;;7.03;6.30;;;25.30;93.60;;;;;;4935193;28;93402;-71
2022/06/24 10:22:29;;;;;;;7.97;7.28;;;25.20;93.80;;;;;;4935411;28;95489;-72
2022/06/24 10:24:56;;;;;;;11.20;8.70;;;25.10;94.10;;;;;;4935557;28;92428;-72
2022/06/24 10:27:58;;;;;;;16.10;9.65;;;25.00;94.70;;;;;;4936523;28;92427;-72
2022/06/24 10:30:58;;;;;;;13.52;11.38;;;24.90;96.60;;;;;;4935083;28;95891;-71
2022/06/24 10:33:28;;;;;;;12.50;8.75;;;24.60;97.10;;;;;;4928313;28;96184;-72
2022/06/24 10:36:05;;;;;;;8.40;6.20;;;24.40;97.80;;;;;;4967457;28;103273;-72
2022/06/24 10:38:42;;;;;;;4.35;3.42;;;24.10;98.00;;;;;;4936572;28;92430;-71
2022/06/24 10:41:12;;;;;;;4.20;2.60;;;23.90;97.40;;;;;;4918872;28;95731;-72
2022/06/24 10:43:41;;;;;;;2.33;2.10;;;23.60;97.70;;;;;;4936392;28;92981;-72
2022/06/24 10:46:11;;;;;;;4.05;2.35;;;23.40;97.60;;;;;;4936364;28;92334;-71
2022/06/24 10:48:50;;;;;;;2.30;2.10;;;23.20;97.80;;;;;;4936262;28;91716;-72
2022/06/24 10:51:18;;;;;;;3.10;2.88;;;23.20;97.70;;;;;;4937447;28;93288;-72
2022/06/24 10:54:09;;;;;;;3.78;2.42;;;23.00;98.00;;;;;;4970543;28;95445;-71
2022/06/24 10:56:38;;;;;;;2.75;2.55;;;23.10;98.30;;;;;;4938267;28;94843;-72
2022/06/24 10:59:05;;;;;;;2.88;2.25;;;23.00;98.40;;;;;;4938257;28;92470;-72
2022/06/24 11:01:32;;;;;;;3.83;3.22;;;23.00;98.60;;;;;;4937839;28;95945;-71
2022/06/24 11:04:03;;;;;;;3.55;2.70;;;22.90;98.70;;;;;;4939540;28;92834;-72
2022/06/24 11:06:30;;;;;;;3.83;3.30;;;22.90;99.00;;;;;;4937366;28;92392;-72
2022/06/24 11:09:08;;;;;;;3.38;3.13;;;22.90;99.00;;;;;;4938205;28;92925;-72
2022/06/24 11:11:35;;;;;;;4.25;3.95;;;22.80;98.90;;;;;;4939112;28;93247;-72
2022/06/24 11:14:25;;;;;;;4.10;3.80;;;22.70;99.10;;;;;;4954469;28;94028;-72
2022/06/24 11:16:52;;;;;;;4.22;3.92;;;22.70;99.10;;;;;;4938370;28;92374;-72
2022/06/24 11:19:19;;;;;;;3.90;3.60;;;22.60;99.40;;;;;;4938131;28;92518;-72
2022/06/24 11:21:50;;;;;;;3.90;3.58;;;22.60;99.40;;;;;;4937805;28;95558;-72
2022/06/24 11:24:19;;;;;;;4.47;4.28;;;22.60;99.20;;;;;;4939106;28;95711;-72
2022/06/24 11:27:05;;;;;;;3.60;3.30;;;22.50;99.10;;;;;;4921820;28;92475;-72
2022/06/24 11:29:56;;;;;;;3.88;3.58;;;22.50;98.70;;;;;;4937958;28;92508;-72
2022/06/24 11:32:24;;;;;;;4.35;2.90;;;22.50;98.80;;;;;;4939201;28;92547;-72
2022/06/24 11:34:51;;;;;;;5.00;3.95;;;22.40;98.80;;;;;;4938713;28;93045;-71
2022/06/24 11:37:22;;;;;;;3.45;3.22;;;22.30;98.50;;;;;;4970306;28;92510;-72
2022/06/24 11:39:58;;;;;;;3.42;3.13;;;22.40;98.20;;;;;;4939232;28;92476;-71
2022/06/24 11:42:25;;;;;;;3.80;3.50;;;22.30;98.10;;;;;;4937942;28;93076;-72
2022/06/24 11:44:52;;;;;;;3.13;2.88;;;22.30;98.00;;;;;;4938525;28;92884;-72
2022/06/24 11:47:32;;;;;;;4.63;4.22;;;22.30;97.90;;;;;;4936751;28;95400;-72
2022/06/24 11:50:00;;;;;;;4.18;3.88;;;22.40;97.80;;;;;;4938949;28;92524;-71
2022/06/24 11:52:26;;;;;;;4.43;4.13;;;22.40;97.70;;;;;;4938712;28;93114;-72
2022/06/24 11:54:53;;;;;;;3.72;3.40;;;22.50;97.60;;;;;;4938302;28;93012;-71
2022/06/24 11:57:21;;;;;;;3.47;3.17;;;22.70;97.40;;;;;;4937502;28;92420;-71
2022/06/24 11:59:48;;;;;;;4.47;4.10;;;22.90;97.20;;;;;;4938676;28;92498;-71
2022/06/24 12:02:16;;;;;;;4.93;4.45;;;23.10;96.80;;;;;;4937910;28;93297;-72
2022/06/24 12:04:47;;;;;;;2.95;2.72;;;23.20;96.70;;;;;;4936991;28;95811;-71
2022/06/24 12:07:15;;;;;;;3.45;3.15;;;23.40;96.40;;;;;;4938599;28;92484;-71
2022/06/24 12:09:43;;;;;;;4.25;3.85;;;23.60;96.30;;;;;;4938329;28;92414;-71
2022/06/24 12:12:14;;;;;;;3.88;3.60;;;23.80;95.90;;;;;;4935993;28;95492;-72
2022/06/24 12:14:41;;;;;;;4.60;3.28;;;24.10;95.50;;;;;;4938165;28;95595;-71
2022/06/24 12:17:10;;;;;;;3.58;3.25;;;24.40;95.30;;;;;;4937454;28;93046;-71
2022/06/24 12:19:58;;;;;;;3.85;3.47;;;24.70;95.10;;;;;;4937939;28;94918;-72
2022/06/24 12:22:26;;;;;;;3.35;3.10;;;25.00;94.30;;;;;;4937811;28;93320;-71
2022/06/24 12:25:10;;;;;;;4.25;3.65;;;25.30;93.80;;;;;;4936805;28;93280;-72
2022/06/24 12:27:39;;;;;;;3.13;2.90;;;25.60;93.10;;;;;;4938274;28;92465;-72
2022/06/24 12:30:18;;;;;;;3.10;2.80;;;25.80;92.50;;;;;;4938611;28;91601;-71
2022/06/24 12:32:59;;;;;;;4.35;4.05;;;26.10;92.20;;;;;;4937907;28;92946;-72
2022/06/24 12:35:34;;;;;;;3.80;3.50;;;26.40;92.00;;;;;;4938298;28;93056;-72
2022/06/24 12:38:10;;;;;;;4.70;4.20;;;26.60;91.70;;;;;;4935537;28;94951;-72
2022/06/24 12:40:37;;;;;;;4.10;3.85;;;26.80;91.60;;;;;;4936762;28;93149;-72
2022/06/24 12:43:09;;;;;;;3.60;3.30;;;26.90;91.60;;;;;;4937669;28;93198;-72
2022/06/24 12:45:37;;;;;;;3.38;3.08;;;27.20;91.00;;;;;;4936408;28;95475;-72
2022/06/24 12:51:06;;;;;;;4.32;4.00;;;27.40;90.50;;;;;;4936256;28;92496;-72
2022/06/24 12:53:33;;;;;;;3.72;3.50;;;27.60;89.80;;;;;;4937826;28;93484;-72
2022/06/24 12:56:00;;;;;;;5.25;4.50;;;27.70;90.00;;;;;;4936672;28;91881;-72
2022/06/24 12:58:27;;;;;;;6.32;5.72;;;27.80;89.40;;;;;;4937876;28;92478;-72
2022/06/24 13:00:55;;;;;;;5.20;4.80;;;27.90;88.60;;;;;;4937845;28;92983;-72
2022/06/24 13:03:23;;;;;;;5.50;5.10;;;28.20;88.30;;;;;;4936345;28;96357;-72
2022/06/24 13:05:50;;;;;;;5.20;4.70;;;28.40;87.10;;;;;;4967855;28;98133;-72